Etusivu
METAR-TAF:

METAR-TAF

Lentoasemat :

Gillam, Manitoba, Kanada

Leveyspiiri: 56-21N, Pituuspiiri: 094-42W, korkeus merenpinnasta: 145 m

Tämänhetkinen sää

Tämä raportti tehtiin 41 minuuttia sitten, kello 13.00 UTC
Tuuli 9 kn lounaasta
Lämpötila -16°C
Kosteus 65%
Ilmanpaine 1012 hPa
Näkyvyys: 24.1 km
Hajonneita pilviä 10000 ft:n korkeudessa

METAR: CYGX 201300Z 22009KT 15SM BKN100 M16/M21 A2989 RMK AC7 PRESFR SLP139

Aika: 07:41 (13:41 UTC)

Sääennuste

Tämä raportti tehtiin 1 tunti ja 3 minuuttia sitten, kello 12.38 UTC
Ennuste voimassa 20. päivästä klo 13 UTC - 21. päivään klo 01 UTC
Tuuli 8 kn lounaasta
Näkyvyys: 10 km
Hajanaisia pilviä 15000 ft:n korkeudessa
Hajanaisia pilviä 22000 ft:n korkeudessa
Tulossa
20. päivästä klo 16 UTC - 20. päivään klo 18 UTC
Tuuli 12 kn lounaasta puuskistuen 22 kn:hen

TAF: CYGX 201238Z 2013/2101 23008KT P6SM SCT150 SCT220 BECMG 2016/2018 23012G22KT RMK NXT FCST BY 201900Z

Säähavainnot ja -ennusteet yli 4000 lentoasemalta (METAR- ja TAF-raportit).

Käytössä olevat sääasemat on merkitty karttaan keltaisilla ja punaisilla pisteillä.

Aseta hiiri pisteen päälle nähdäksesi sääaseman nimen.

Klikkaa sitten nähdäksesi säähavainnot ja -ennusteet.

Kartan vaihtaminen: klikkaa mustalla rastilla varustettuja vihreitä pisteitä, niin voit zoomata sisään; viivalla varustettua vihreää pistettä, niin voit zoomata ulos tai vihreitä nuolia, niin pääset viereisille kartoille.


METAR-TAF: